sensor_id;sensor_type;location;lat;lon;timestamp;P1;durP1;ratioP1;P2;durP2;ratioP2
49015;SDS011;34830;44.064;12.566;2023-03-23T00:01:00;26.90;;;17.60;;
49015;SDS011;34830;44.064;12.566;2023-03-23T00:03:27;30.88;;;18.15;;
49015;SDS011;34830;44.064;12.566;2023-03-23T00:05:54;29.80;;;16.73;;
49015;SDS011;34830;44.064;12.566;2023-03-23T00:08:28;24.77;;;16.25;;
49015;SDS011;34830;44.064;12.566;2023-03-23T00:10:54;37.55;;;19.17;;
49015;SDS011;34830;44.064;12.566;2023-03-23T00:13:24;24.63;;;15.45;;
49015;SDS011;34830;44.064;12.566;2023-03-23T00:15:50;22.02;;;16.23;;
49015;SDS011;34830;44.064;12.566;2023-03-23T00:18:21;24.58;;;15.90;;
49015;SDS011;34830;44.064;12.566;2023-03-23T00:20:51;23.23;;;15.30;;
49015;SDS011;34830;44.064;12.566;2023-03-23T00:23:19;24.73;;;14.77;;
49015;SDS011;34830;44.064;12.566;2023-03-23T00:25:49;25.58;;;16.13;;
49015;SDS011;34830;44.064;12.566;2023-03-23T00:28:18;25.30;;;16.00;;
49015;SDS011;34830;44.064;12.566;2023-03-23T00:31:09;20.95;;;14.75;;
49015;SDS011;34830;44.064;12.566;2023-03-23T00:33:35;23.33;;;15.13;;
49015;SDS011;34830;44.064;12.566;2023-03-23T00:36:13;23.88;;;15.68;;
49015;SDS011;34830;44.064;12.566;2023-03-23T00:38:39;25.05;;;16.05;;
49015;SDS011;34830;44.064;12.566;2023-03-23T00:41:07;21.20;;;15.95;;
49015;SDS011;34830;44.064;12.566;2023-03-23T00:43:33;21.50;;;15.60;;
49015;SDS011;34830;44.064;12.566;2023-03-23T00:46:02;25.65;;;16.58;;
49015;SDS011;34830;44.064;12.566;2023-03-23T00:48:34;24.92;;;17.25;;
49015;SDS011;34830;44.064;12.566;2023-03-23T00:51:10;20.77;;;15.05;;
49015;SDS011;34830;44.064;12.566;2023-03-23T00:53:37;22.92;;;15.50;;
49015;SDS011;34830;44.064;12.566;2023-03-23T00:56:04;24.90;;;16.85;;
49015;SDS011;34830;44.064;12.566;2023-03-23T00:58:31;25.25;;;16.13;;
49015;SDS011;34830;44.064;12.566;2023-03-23T01:00:57;24.13;;;15.50;;
49015;SDS011;34830;44.064;12.566;2023-03-23T01:03:23;24.55;;;14.63;;
49015;SDS011;34830;44.064;12.566;2023-03-23T01:05:51;24.52;;;15.30;;
49015;SDS011;34830;44.064;12.566;2023-03-23T01:08:18;22.15;;;16.33;;
49015;SDS011;34830;44.064;12.566;2023-03-23T01:10:45;25.17;;;16.70;;
49015;SDS011;34830;44.064;12.566;2023-03-23T01:13:11;28.05;;;16.63;;
49015;SDS011;34830;44.064;12.566;2023-03-23T01:15:38;21.48;;;14.32;;
49015;SDS011;34830;44.064;12.566;2023-03-23T01:18:04;23.75;;;14.80;;
49015;SDS011;34830;44.064;12.566;2023-03-23T01:20:31;22.58;;;15.32;;
49015;SDS011;34830;44.064;12.566;2023-03-23T01:22:57;24.85;;;16.50;;
49015;SDS011;34830;44.064;12.566;2023-03-23T01:25:29;22.75;;;15.60;;
49015;SDS011;34830;44.064;12.566;2023-03-23T01:27:57;25.70;;;16.38;;
49015;SDS011;34830;44.064;12.566;2023-03-23T01:30:24;21.83;;;15.43;;
49015;SDS011;34830;44.064;12.566;2023-03-23T01:32:51;23.42;;;15.25;;
49015;SDS011;34830;44.064;12.566;2023-03-23T01:35:17;23.58;;;16.40;;
49015;SDS011;34830;44.064;12.566;2023-03-23T01:37:44;21.45;;;14.73;;
49015;SDS011;34830;44.064;12.566;2023-03-23T01:40:10;30.25;;;17.35;;
49015;SDS011;34830;44.064;12.566;2023-03-23T01:42:37;22.60;;;15.55;;
49015;SDS011;34830;44.064;12.566;2023-03-23T01:47:57;24.10;;;16.05;;
49015;SDS011;34830;44.064;12.566;2023-03-23T01:50:28;21.83;;;15.80;;
49015;SDS011;34830;44.064;12.566;2023-03-23T01:52:56;23.25;;;16.20;;
49015;SDS011;34830;44.064;12.566;2023-03-23T01:55:24;22.00;;;15.13;;
49015;SDS011;34830;44.064;12.566;2023-03-23T01:57:53;21.83;;;16.02;;
49015;SDS011;34830;44.064;12.566;2023-03-23T02:00:20;24.42;;;16.23;;
49015;SDS011;34830;44.064;12.566;2023-03-23T02:02:51;23.98;;;15.68;;
49015;SDS011;34830;44.064;12.566;2023-03-23T02:05:30;22.85;;;14.73;;
49015;SDS011;34830;44.064;12.566;2023-03-23T02:08:04;21.45;;;14.93;;
49015;SDS011;34830;44.064;12.566;2023-03-23T02:10:34;20.35;;;14.95;;
49015;SDS011;34830;44.064;12.566;2023-03-23T02:13:02;19.35;;;13.50;;
49015;SDS011;34830;44.064;12.566;2023-03-23T02:15:32;18.58;;;13.35;;
49015;SDS011;34830;44.064;12.566;2023-03-23T02:18:08;21.35;;;13.07;;
49015;SDS011;34830;44.064;12.566;2023-03-23T02:20:48;20.90;;;13.85;;
49015;SDS011;34830;44.064;12.566;2023-03-23T02:31:39;20.95;;;12.60;;
49015;SDS011;34830;44.064;12.566;2023-03-23T02:42:07;19.75;;;12.90;;
49015;SDS011;34830;44.064;12.566;2023-03-23T02:44:36;22.45;;;14.90;;
49015;SDS011;34830;44.064;12.566;2023-03-23T02:47:05;17.65;;;12.75;;
49015;SDS011;34830;44.064;12.566;2023-03-23T02:49:34;19.98;;;12.60;;
49015;SDS011;34830;44.064;12.566;2023-03-23T02:52:03;20.40;;;12.25;;
49015;SDS011;34830;44.064;12.566;2023-03-23T02:54:32;17.57;;;11.97;;
49015;SDS011;34830;44.064;12.566;2023-03-23T02:56:59;21.23;;;12.35;;
49015;SDS011;34830;44.064;12.566;2023-03-23T02:59:29;18.67;;;12.00;;
49015;SDS011;34830;44.064;12.566;2023-03-23T03:02:17;14.73;;;10.43;;
49015;SDS011;34830;44.064;12.566;2023-03-23T03:05:09;17.77;;;11.10;;
49015;SDS011;34830;44.064;12.566;2023-03-23T03:18:56;22.88;;;12.18;;
49015;SDS011;34830;44.064;12.566;2023-03-23T03:21:43;20.60;;;11.27;;
49015;SDS011;34830;44.064;12.566;2023-03-23T03:24:12;18.55;;;12.07;;
49015;SDS011;34830;44.064;12.566;2023-03-23T03:26:41;19.20;;;11.60;;
49015;SDS011;34830;44.064;12.566;2023-03-23T03:29:37;15.45;;;11.38;;
49015;SDS011;34830;44.064;12.566;2023-03-23T03:32:08;15.23;;;10.55;;
49015;SDS011;34830;44.064;12.566;2023-03-23T03:34:36;19.58;;;11.98;;
49015;SDS011;34830;44.064;12.566;2023-03-23T03:37:04;20.55;;;11.45;;
49015;SDS011;34830;44.064;12.566;2023-03-23T03:39:35;15.73;;;10.85;;
49015;SDS011;34830;44.064;12.566;2023-03-23T03:42:04;17.20;;;11.13;;
49015;SDS011;34830;44.064;12.566;2023-03-23T03:44:31;17.77;;;10.88;;
49015;SDS011;34830;44.064;12.566;2023-03-23T03:46:58;19.15;;;11.27;;
49015;SDS011;34830;44.064;12.566;2023-03-23T03:49:24;17.65;;;11.60;;
49015;SDS011;34830;44.064;12.566;2023-03-23T03:51:52;18.45;;;10.88;;
49015;SDS011;34830;44.064;12.566;2023-03-23T03:54:23;18.43;;;10.50;;
49015;SDS011;34830;44.064;12.566;2023-03-23T03:56:49;14.63;;;10.15;;
49015;SDS011;34830;44.064;12.566;2023-03-23T03:59:37;17.08;;;11.23;;
49015;SDS011;34830;44.064;12.566;2023-03-23T04:02:22;15.40;;;10.52;;
49015;SDS011;34830;44.064;12.566;2023-03-23T04:04:50;14.80;;;10.13;;
49015;SDS011;34830;44.064;12.566;2023-03-23T04:07:19;16.48;;;10.75;;
49015;SDS011;34830;44.064;12.566;2023-03-23T04:09:47;15.48;;;9.80;;
49015;SDS011;34830;44.064;12.566;2023-03-23T04:12:16;14.30;;;10.43;;
49015;SDS011;34830;44.064;12.566;2023-03-23T04:14:54;16.65;;;10.63;;
49015;SDS011;34830;44.064;12.566;2023-03-23T04:17:20;14.40;;;10.07;;
49015;SDS011;34830;44.064;12.566;2023-03-23T04:19:46;14.27;;;9.95;;
49015;SDS011;34830;44.064;12.566;2023-03-23T04:22:14;17.33;;;10.75;;
49015;SDS011;34830;44.064;12.566;2023-03-23T04:24:42;21.35;;;11.10;;
49015;SDS011;34830;44.064;12.566;2023-03-23T04:27:13;15.30;;;10.47;;
49015;SDS011;34830;44.064;12.566;2023-03-23T04:29:39;17.20;;;10.10;;
49015;SDS011;34830;44.064;12.566;2023-03-23T04:32:25;15.27;;;10.25;;
49015;SDS011;34830;44.064;12.566;2023-03-23T04:34:55;15.02;;;10.30;;
49015;SDS011;34830;44.064;12.566;2023-03-23T04:37:27;17.58;;;10.82;;
49015;SDS011;34830;44.064;12.566;2023-03-23T04:39:55;16.77;;;10.38;;
49015;SDS011;34830;44.064;12.566;2023-03-23T04:42:48;16.60;;;9.82;;
49015;SDS011;34830;44.064;12.566;2023-03-23T04:45:33;15.35;;;9.85;;
49015;SDS011;34830;44.064;12.566;2023-03-23T04:48:00;17.20;;;10.35;;
49015;SDS011;34830;44.064;12.566;2023-03-23T04:50:37;16.17;;;9.90;;
49015;SDS011;34830;44.064;12.566;2023-03-23T04:53:14;14.98;;;9.25;;
49015;SDS011;34830;44.064;12.566;2023-03-23T04:55:43;13.93;;;9.02;;
49015;SDS011;34830;44.064;12.566;2023-03-23T04:58:13;15.50;;;9.65;;
49015;SDS011;34830;44.064;12.566;2023-03-23T05:00:52;17.95;;;10.90;;
49015;SDS011;34830;44.064;12.566;2023-03-23T05:03:20;13.90;;;10.38;;
49015;SDS011;34830;44.064;12.566;2023-03-23T05:05:48;12.85;;;9.15;;
49015;SDS011;34830;44.064;12.566;2023-03-23T05:08:18;18.20;;;9.05;;
49015;SDS011;34830;44.064;12.566;2023-03-23T05:10:52;16.27;;;10.70;;
49015;SDS011;34830;44.064;12.566;2023-03-23T05:13:20;14.43;;;9.10;;
49015;SDS011;34830;44.064;12.566;2023-03-23T05:15:50;14.77;;;9.63;;
49015;SDS011;34830;44.064;12.566;2023-03-23T05:18:16;15.40;;;9.63;;
49015;SDS011;34830;44.064;12.566;2023-03-23T05:20:42;11.73;;;8.85;;
49015;SDS011;34830;44.064;12.566;2023-03-23T05:25:40;16.25;;;8.68;;
49015;SDS011;34830;44.064;12.566;2023-03-23T05:28:13;13.48;;;7.97;;
49015;SDS011;34830;44.064;12.566;2023-03-23T05:30:48;12.30;;;6.97;;
49015;SDS011;34830;44.064;12.566;2023-03-23T05:33:16;16.08;;;7.97;;
49015;SDS011;34830;44.064;12.566;2023-03-23T05:35:46;12.50;;;6.90;;
49015;SDS011;34830;44.064;12.566;2023-03-23T05:38:14;10.88;;;6.82;;
49015;SDS011;34830;44.064;12.566;2023-03-23T05:40:41;12.85;;;6.45;;
49015;SDS011;34830;44.064;12.566;2023-03-23T05:43:14;11.15;;;8.07;;
49015;SDS011;34830;44.064;12.566;2023-03-23T05:46:07;9.00;;;6.28;;
49015;SDS011;34830;44.064;12.566;2023-03-23T05:48:34;10.13;;;5.68;;
49015;SDS011;34830;44.064;12.566;2023-03-23T05:51:01;10.30;;;5.38;;
49015;SDS011;34830;44.064;12.566;2023-03-23T05:53:29;9.20;;;5.20;;
49015;SDS011;34830;44.064;12.566;2023-03-23T05:56:00;11.63;;;5.45;;
49015;SDS011;34830;44.064;12.566;2023-03-23T05:58:44;12.30;;;5.25;;
49015;SDS011;34830;44.064;12.566;2023-03-23T06:01:11;9.15;;;5.28;;
49015;SDS011;34830;44.064;12.566;2023-03-23T06:03:40;9.40;;;5.00;;
49015;SDS011;34830;44.064;12.566;2023-03-23T06:06:16;11.27;;;5.72;;
49015;SDS011;34830;44.064;12.566;2023-03-23T06:08:53;10.35;;;5.15;;
49015;SDS011;34830;44.064;12.566;2023-03-23T06:11:33;7.30;;;5.00;;
49015;SDS011;34830;44.064;12.566;2023-03-23T06:14:19;9.85;;;5.13;;
49015;SDS011;34830;44.064;12.566;2023-03-23T06:16:46;12.90;;;4.93;;
49015;SDS011;34830;44.064;12.566;2023-03-23T06:19:14;10.15;;;5.55;;
49015;SDS011;34830;44.064;12.566;2023-03-23T06:21:48;16.70;;;5.28;;
49015;SDS011;34830;44.064;12.566;2023-03-23T06:24:27;8.70;;;5.00;;
49015;SDS011;34830;44.064;12.566;2023-03-23T06:26:53;11.77;;;4.90;;
49015;SDS011;34830;44.064;12.566;2023-03-23T06:29:21;11.63;;;4.78;;
49015;SDS011;34830;44.064;12.566;2023-03-23T06:34:21;14.73;;;5.35;;
49015;SDS011;34830;44.064;12.566;2023-03-23T06:37:16;15.02;;;5.15;;
49015;SDS011;34830;44.064;12.566;2023-03-23T06:40:04;14.90;;;5.30;;
49015;SDS011;34830;44.064;12.566;2023-03-23T06:42:47;12.82;;;5.72;;
49015;SDS011;34830;44.064;12.566;2023-03-23T06:45:33;16.77;;;6.32;;
49015;SDS011;34830;44.064;12.566;2023-03-23T06:48:18;13.80;;;6.30;;
49015;SDS011;34830;44.064;12.566;2023-03-23T06:50:44;13.90;;;7.07;;
49015;SDS011;34830;44.064;12.566;2023-03-23T06:53:12;13.45;;;7.10;;
49015;SDS011;34830;44.064;12.566;2023-03-23T06:55:38;25.27;;;9.43;;
49015;SDS011;34830;44.064;12.566;2023-03-23T06:58:05;18.50;;;8.80;;
49015;SDS011;34830;44.064;12.566;2023-03-23T07:00:33;20.27;;;9.18;;
49015;SDS011;34830;44.064;12.566;2023-03-23T07:02:59;23.40;;;9.10;;
49015;SDS011;34830;44.064;12.566;2023-03-23T07:05:25;16.08;;;8.40;;
49015;SDS011;34830;44.064;12.566;2023-03-23T07:07:52;22.60;;;9.60;;
49015;SDS011;34830;44.064;12.566;2023-03-23T07:10:29;13.60;;;8.23;;
49015;SDS011;34830;44.064;12.566;2023-03-23T07:12:55;10.55;;;7.47;;
49015;SDS011;34830;44.064;12.566;2023-03-23T07:15:22;11.65;;;7.45;;
49015;SDS011;34830;44.064;12.566;2023-03-23T07:17:51;20.88;;;8.13;;
49015;SDS011;34830;44.064;12.566;2023-03-23T07:20:27;11.15;;;6.82;;
49015;SDS011;34830;44.064;12.566;2023-03-23T07:22:54;11.90;;;6.47;;
49015;SDS011;34830;44.064;12.566;2023-03-23T07:25:37;10.30;;;6.25;;
49015;SDS011;34830;44.064;12.566;2023-03-23T07:28:05;10.70;;;6.30;;
49015;SDS011;34830;44.064;12.566;2023-03-23T07:30:32;12.07;;;6.20;;
49015;SDS011;34830;44.064;12.566;2023-03-23T07:32:59;10.73;;;6.43;;
49015;SDS011;34830;44.064;12.566;2023-03-23T07:35:25;11.40;;;5.90;;
49015;SDS011;34830;44.064;12.566;2023-03-23T07:37:59;18.23;;;6.13;;
49015;SDS011;34830;44.064;12.566;2023-03-23T07:40:25;10.70;;;5.28;;
49015;SDS011;34830;44.064;12.566;2023-03-23T07:42:55;10.07;;;5.60;;
49015;SDS011;34830;44.064;12.566;2023-03-23T07:45:38;8.48;;;5.10;;
49015;SDS011;34830;44.064;12.566;2023-03-23T07:48:05;8.55;;;5.15;;
49015;SDS011;34830;44.064;12.566;2023-03-23T07:50:32;8.60;;;5.25;;
49015;SDS011;34830;44.064;12.566;2023-03-23T07:52:59;12.82;;;6.15;;
49015;SDS011;34830;44.064;12.566;2023-03-23T07:55:29;16.92;;;5.45;;
49015;SDS011;34830;44.064;12.566;2023-03-23T07:58:06;6.90;;;5.07;;
49015;SDS011;34830;44.064;12.566;2023-03-23T08:00:33;10.52;;;5.20;;
49015;SDS011;34830;44.064;12.566;2023-03-23T08:03:04;16.05;;;6.28;;
49015;SDS011;34830;44.064;12.566;2023-03-23T08:05:58;8.48;;;5.65;;
49015;SDS011;34830;44.064;12.566;2023-03-23T08:09:03;9.93;;;4.88;;
49015;SDS011;34830;44.064;12.566;2023-03-23T08:11:58;7.00;;;4.80;;
49015;SDS011;34830;44.064;12.566;2023-03-23T08:14:42;13.93;;;4.93;;
49015;SDS011;34830;44.064;12.566;2023-03-23T08:17:28;9.52;;;4.65;;
49015;SDS011;34830;44.064;12.566;2023-03-23T08:20:23;11.50;;;4.38;;
49015;SDS011;34830;44.064;12.566;2023-03-23T08:23:00;6.35;;;3.85;;
49015;SDS011;34830;44.064;12.566;2023-03-23T08:25:38;8.75;;;4.25;;
49015;SDS011;34830;44.064;12.566;2023-03-23T08:28:30;6.53;;;4.07;;
49015;SDS011;34830;44.064;12.566;2023-03-23T08:31:19;6.88;;;3.75;;
49015;SDS011;34830;44.064;12.566;2023-03-23T08:33:57;13.13;;;4.32;;
49015;SDS011;34830;44.064;12.566;2023-03-23T08:36:46;9.60;;;4.00;;
49015;SDS011;34830;44.064;12.566;2023-03-23T08:39:12;9.23;;;5.22;;
49015;SDS011;34830;44.064;12.566;2023-03-23T08:42:09;13.95;;;5.05;;
49015;SDS011;34830;44.064;12.566;2023-03-23T08:45:01;12.30;;;4.93;;
49015;SDS011;34830;44.064;12.566;2023-03-23T08:47:50;7.53;;;3.75;;
49015;SDS011;34830;44.064;12.566;2023-03-23T08:50:37;10.95;;;4.68;;
49015;SDS011;34830;44.064;12.566;2023-03-23T08:53:18;11.10;;;5.43;;
49015;SDS011;34830;44.064;12.566;2023-03-23T08:55:47;9.20;;;4.57;;
49015;SDS011;34830;44.064;12.566;2023-03-23T08:58:15;11.93;;;5.10;;
49015;SDS011;34830;44.064;12.566;2023-03-23T09:00:50;8.27;;;5.15;;
49015;SDS011;34830;44.064;12.566;2023-03-23T09:03:35;10.55;;;4.90;;
49015;SDS011;34830;44.064;12.566;2023-03-23T09:06:20;8.90;;;4.72;;
49015;SDS011;34830;44.064;12.566;2023-03-23T09:08:46;6.80;;;4.63;;
49015;SDS011;34830;44.064;12.566;2023-03-23T09:11:12;10.75;;;5.28;;
49015;SDS011;34830;44.064;12.566;2023-03-23T09:13:38;8.63;;;4.72;;
49015;SDS011;34830;44.064;12.566;2023-03-23T09:16:05;9.45;;;4.97;;
49015;SDS011;34830;44.064;12.566;2023-03-23T09:18:32;11.68;;;5.18;;
49015;SDS011;34830;44.064;12.566;2023-03-23T09:20:59;9.10;;;4.70;;
49015;SDS011;34830;44.064;12.566;2023-03-23T09:23:25;11.80;;;6.05;;
49015;SDS011;34830;44.064;12.566;2023-03-23T09:25:52;13.05;;;6.55;;
49015;SDS011;34830;44.064;12.566;2023-03-23T09:28:18;9.38;;;5.32;;
49015;SDS011;34830;44.064;12.566;2023-03-23T09:30:45;14.25;;;4.50;;
49015;SDS011;34830;44.064;12.566;2023-03-23T09:33:11;15.25;;;5.85;;
49015;SDS011;34830;44.064;12.566;2023-03-23T09:35:37;9.15;;;5.15;;
49015;SDS011;34830;44.064;12.566;2023-03-23T09:38:04;14.25;;;5.55;;
49015;SDS011;34830;44.064;12.566;2023-03-23T09:40:54;9.73;;;4.85;;
49015;SDS011;34830;44.064;12.566;2023-03-23T09:51:14;11.77;;;6.65;;
49015;SDS011;34830;44.064;12.566;2023-03-23T09:53:53;12.70;;;6.75;;
49015;SDS011;34830;44.064;12.566;2023-03-23T09:56:29;13.30;;;7.60;;
49015;SDS011;34830;44.064;12.566;2023-03-23T09:59:04;18.05;;;6.65;;
49015;SDS011;34830;44.064;12.566;2023-03-23T10:04:10;14.23;;;7.20;;
49015;SDS011;34830;44.064;12.566;2023-03-23T10:06:37;14.98;;;7.47;;
49015;SDS011;34830;44.064;12.566;2023-03-23T10:09:04;14.30;;;7.18;;
49015;SDS011;34830;44.064;12.566;2023-03-23T10:11:41;16.80;;;7.10;;
49015;SDS011;34830;44.064;12.566;2023-03-23T10:22:14;18.05;;;8.30;;
49015;SDS011;34830;44.064;12.566;2023-03-23T10:24:45;19.17;;;8.65;;
49015;SDS011;34830;44.064;12.566;2023-03-23T10:27:19;17.88;;;8.50;;
49015;SDS011;34830;44.064;12.566;2023-03-23T10:29:50;19.65;;;9.40;;
49015;SDS011;34830;44.064;12.566;2023-03-23T10:32:36;28.13;;;11.02;;
49015;SDS011;34830;44.064;12.566;2023-03-23T10:35:07;27.75;;;11.65;;
49015;SDS011;34830;44.064;12.566;2023-03-23T10:37:38;24.42;;;9.60;;
49015;SDS011;34830;44.064;12.566;2023-03-23T10:40:13;28.20;;;11.45;;
49015;SDS011;34830;44.064;12.566;2023-03-23T10:42:45;23.23;;;10.27;;
49015;SDS011;34830;44.064;12.566;2023-03-23T10:45:22;24.77;;;10.98;;
49015;SDS011;34830;44.064;12.566;2023-03-23T10:48:12;24.27;;;10.60;;
49015;SDS011;34830;44.064;12.566;2023-03-23T10:50:49;20.63;;;9.63;;
49015;SDS011;34830;44.064;12.566;2023-03-23T10:55:57;20.75;;;9.88;;
49015;SDS011;34830;44.064;12.566;2023-03-23T10:58:29;20.38;;;8.70;;
49015;SDS011;34830;44.064;12.566;2023-03-23T11:00:57;22.80;;;10.27;;
49015;SDS011;34830;44.064;12.566;2023-03-23T11:06:05;19.30;;;9.45;;
49015;SDS011;34830;44.064;12.566;2023-03-23T11:08:37;20.00;;;8.93;;
49015;SDS011;34830;44.064;12.566;2023-03-23T11:13:55;23.67;;;10.18;;
49015;SDS011;34830;44.064;12.566;2023-03-23T11:16:27;21.52;;;9.60;;
49015;SDS011;34830;44.064;12.566;2023-03-23T11:18:57;20.15;;;9.40;;
49015;SDS011;34830;44.064;12.566;2023-03-23T11:21:24;23.05;;;10.27;;
49015;SDS011;34830;44.064;12.566;2023-03-23T11:23:53;24.13;;;10.60;;
49015;SDS011;34830;44.064;12.566;2023-03-23T11:26:29;21.43;;;10.20;;
49015;SDS011;34830;44.064;12.566;2023-03-23T11:28:58;22.65;;;9.60;;
49015;SDS011;34830;44.064;12.566;2023-03-23T11:31:40;21.25;;;9.35;;
49015;SDS011;34830;44.064;12.566;2023-03-23T11:36:37;24.63;;;8.65;;
49015;SDS011;34830;44.064;12.566;2023-03-23T11:39:45;21.67;;;9.10;;
49015;SDS011;34830;44.064;12.566;2023-03-23T11:42:00;19.48;;;9.07;;
49015;SDS011;34830;44.064;12.566;2023-03-23T11:44:33;22.20;;;9.35;;
49015;SDS011;34830;44.064;12.566;2023-03-23T11:47:16;22.30;;;10.52;;
49015;SDS011;34830;44.064;12.566;2023-03-23T11:58:15;19.98;;;9.05;;
49015;SDS011;34830;44.064;12.566;2023-03-23T12:01:05;27.00;;;10.60;;
49015;SDS011;34830;44.064;12.566;2023-03-23T12:03:51;18.33;;;9.02;;
49015;SDS011;34830;44.064;12.566;2023-03-23T12:06:52;18.80;;;9.02;;
49015;SDS011;34830;44.064;12.566;2023-03-23T12:12:27;23.77;;;8.45;;
49015;SDS011;34830;44.064;12.566;2023-03-23T12:17:40;22.98;;;8.60;;
49015;SDS011;34830;44.064;12.566;2023-03-23T12:20:46;20.92;;;8.70;;
49015;SDS011;34830;44.064;12.566;2023-03-23T12:48:26;22.30;;;10.38;;
49015;SDS011;34830;44.064;12.566;2023-03-23T12:54:33;18.35;;;9.30;;
49015;SDS011;34830;44.064;12.566;2023-03-23T12:57:04;17.88;;;9.70;;
49015;SDS011;34830;44.064;12.566;2023-03-23T13:07:53;26.02;;;11.60;;
49015;SDS011;34830;44.064;12.566;2023-03-23T13:11:03;27.95;;;11.93;;
49015;SDS011;34830;44.064;12.566;2023-03-23T13:13:40;21.15;;;10.63;;
49015;SDS011;34830;44.064;12.566;2023-03-23T13:16:26;21.58;;;10.95;;
49015;SDS011;34830;44.064;12.566;2023-03-23T13:21:35;23.45;;;10.32;;
49015;SDS011;34830;44.064;12.566;2023-03-23T13:24:12;18.25;;;10.95;;
49015;SDS011;34830;44.064;12.566;2023-03-23T13:26:41;21.63;;;10.35;;
49015;SDS011;34830;44.064;12.566;2023-03-23T13:29:11;22.75;;;10.73;;
49015;SDS011;34830;44.064;12.566;2023-03-23T13:36:37;23.08;;;9.95;;
49015;SDS011;34830;44.064;12.566;2023-03-23T13:39:06;18.05;;;9.32;;
49015;SDS011;34830;44.064;12.566;2023-03-23T13:41:46;19.23;;;9.80;;
49015;SDS011;34830;44.064;12.566;2023-03-23T13:44:18;20.85;;;10.02;;
49015;SDS011;34830;44.064;12.566;2023-03-23T13:52:35;20.75;;;10.25;;
49015;SDS011;34830;44.064;12.566;2023-03-23T13:57:55;19.45;;;9.60;;
49015;SDS011;34830;44.064;12.566;2023-03-23T14:05:40;22.45;;;9.15;;
49015;SDS011;34830;44.064;12.566;2023-03-23T14:10:41;14.43;;;8.60;;
49015;SDS011;34830;44.064;12.566;2023-03-23T14:13:14;21.92;;;9.50;;
49015;SDS011;34830;44.064;12.566;2023-03-23T14:15:44;16.23;;;8.93;;
49015;SDS011;34830;44.064;12.566;2023-03-23T14:18:19;17.23;;;8.45;;
49015;SDS011;34830;44.064;12.566;2023-03-23T14:20:48;16.48;;;7.65;;
49015;SDS011;34830;44.064;12.566;2023-03-23T14:23:15;15.40;;;7.45;;
49015;SDS011;34830;44.064;12.566;2023-03-23T14:25:43;15.82;;;6.93;;
49015;SDS011;34830;44.064;12.566;2023-03-23T14:28:16;18.90;;;7.22;;
49015;SDS011;34830;44.064;12.566;2023-03-23T14:30:43;14.00;;;8.05;;
49015;SDS011;34830;44.064;12.566;2023-03-23T14:33:10;16.35;;;7.90;;
49015;SDS011;34830;44.064;12.566;2023-03-23T14:35:40;13.55;;;6.50;;
49015;SDS011;34830;44.064;12.566;2023-03-23T14:38:11;14.38;;;6.78;;
49015;SDS011;34830;44.064;12.566;2023-03-23T14:40:41;15.20;;;6.45;;
49015;SDS011;34830;44.064;12.566;2023-03-23T14:43:08;13.93;;;6.43;;
49015;SDS011;34830;44.064;12.566;2023-03-23T14:45:37;17.35;;;7.15;;
49015;SDS011;34830;44.064;12.566;2023-03-23T14:48:04;10.52;;;6.15;;
49015;SDS011;34830;44.064;12.566;2023-03-23T14:50:42;12.30;;;6.53;;
49015;SDS011;34830;44.064;12.566;2023-03-23T14:53:22;12.07;;;5.80;;
49015;SDS011;34830;44.064;12.566;2023-03-23T14:55:58;13.75;;;6.60;;
49015;SDS011;34830;44.064;12.566;2023-03-23T14:58:28;9.10;;;5.45;;
49015;SDS011;34830;44.064;12.566;2023-03-23T15:03:39;13.85;;;5.93;;
49015;SDS011;34830;44.064;12.566;2023-03-23T15:06:12;16.33;;;6.07;;
49015;SDS011;34830;44.064;12.566;2023-03-23T15:08:40;13.77;;;6.20;;
49015;SDS011;34830;44.064;12.566;2023-03-23T15:13:33;10.40;;;5.40;;
49015;SDS011;34830;44.064;12.566;2023-03-23T15:16:01;10.85;;;5.97;;
49015;SDS011;34830;44.064;12.566;2023-03-23T15:18:33;11.98;;;7.43;;
49015;SDS011;34830;44.064;12.566;2023-03-23T15:21:11;11.25;;;6.95;;
49015;SDS011;34830;44.064;12.566;2023-03-23T15:23:45;11.30;;;6.03;;
49015;SDS011;34830;44.064;12.566;2023-03-23T15:26:25;12.02;;;6.82;;
49015;SDS011;34830;44.064;12.566;2023-03-23T15:29:04;11.35;;;6.72;;
49015;SDS011;34830;44.064;12.566;2023-03-23T15:31:33;11.13;;;6.13;;
49015;SDS011;34830;44.064;12.566;2023-03-23T15:34:01;10.15;;;6.53;;
49015;SDS011;34830;44.064;12.566;2023-03-23T15:36:32;10.65;;;6.63;;
49015;SDS011;34830;44.064;12.566;2023-03-23T15:38:59;10.98;;;6.78;;
49015;SDS011;34830;44.064;12.566;2023-03-23T15:41:26;12.85;;;7.07;;
49015;SDS011;34830;44.064;12.566;2023-03-23T15:43:57;11.15;;;7.40;;
49015;SDS011;34830;44.064;12.566;2023-03-23T15:46:25;11.32;;;7.55;;
49015;SDS011;34830;44.064;12.566;2023-03-23T15:48:54;10.50;;;8.07;;
49015;SDS011;34830;44.064;12.566;2023-03-23T15:51:33;14.10;;;8.80;;
49015;SDS011;34830;44.064;12.566;2023-03-23T15:53:59;14.68;;;9.38;;
49015;SDS011;34830;44.064;12.566;2023-03-23T15:56:25;11.00;;;7.57;;
49015;SDS011;34830;44.064;12.566;2023-03-23T15:58:52;14.05;;;7.60;;
49015;SDS011;34830;44.064;12.566;2023-03-23T16:01:25;10.27;;;7.65;;
49015;SDS011;34830;44.064;12.566;2023-03-23T16:03:54;17.20;;;7.03;;
49015;SDS011;34830;44.064;12.566;2023-03-23T16:06:26;10.83;;;7.63;;
49015;SDS011;34830;44.064;12.566;2023-03-23T16:08:53;10.07;;;6.55;;
49015;SDS011;34830;44.064;12.566;2023-03-23T16:11:20;9.32;;;5.82;;
49015;SDS011;34830;44.064;12.566;2023-03-23T16:13:46;8.48;;;6.72;;
49015;SDS011;34830;44.064;12.566;2023-03-23T16:16:34;9.05;;;6.13;;
49015;SDS011;34830;44.064;12.566;2023-03-23T16:18:59;11.30;;;6.65;;
49015;SDS011;34830;44.064;12.566;2023-03-23T16:21:25;9.93;;;6.88;;
49015;SDS011;34830;44.064;12.566;2023-03-23T16:23:52;11.07;;;6.93;;
49015;SDS011;34830;44.064;12.566;2023-03-23T16:26:19;9.68;;;6.18;;
49015;SDS011;34830;44.064;12.566;2023-03-23T16:28:45;12.15;;;6.68;;
49015;SDS011;34830;44.064;12.566;2023-03-23T16:31:11;8.48;;;6.07;;
49015;SDS011;34830;44.064;12.566;2023-03-23T16:33:37;12.98;;;6.22;;
49015;SDS011;34830;44.064;12.566;2023-03-23T16:36:03;8.25;;;5.80;;
49015;SDS011;34830;44.064;12.566;2023-03-23T16:38:29;10.35;;;5.90;;
49015;SDS011;34830;44.064;12.566;2023-03-23T16:40:56;7.68;;;5.32;;
49015;SDS011;34830;44.064;12.566;2023-03-23T16:43:22;9.30;;;5.65;;
49015;SDS011;34830;44.064;12.566;2023-03-23T16:45:48;9.65;;;5.38;;
49015;SDS011;34830;44.064;12.566;2023-03-23T16:48:14;9.35;;;6.22;;
49015;SDS011;34830;44.064;12.566;2023-03-23T16:50:41;10.05;;;6.07;;
49015;SDS011;34830;44.064;12.566;2023-03-23T16:53:08;7.35;;;5.63;;
49015;SDS011;34830;44.064;12.566;2023-03-23T16:55:35;12.10;;;7.30;;
49015;SDS011;34830;44.064;12.566;2023-03-23T16:58:01;11.98;;;6.93;;
49015;SDS011;34830;44.064;12.566;2023-03-23T17:00:28;12.20;;;6.15;;
49015;SDS011;34830;44.064;12.566;2023-03-23T17:02:54;13.20;;;6.97;;
49015;SDS011;34830;44.064;12.566;2023-03-23T17:05:25;11.20;;;6.53;;
49015;SDS011;34830;44.064;12.566;2023-03-23T17:07:53;9.75;;;6.40;;
49015;SDS011;34830;44.064;12.566;2023-03-23T17:10:20;12.45;;;6.70;;
49015;SDS011;34830;44.064;12.566;2023-03-23T17:12:48;11.52;;;5.68;;